sensor_id;sensor_type;location;lat;lon;timestamp;temperature;humidity
20349;DHT22;10332;50.208;18.988;2023-03-11T00:00:46;9.60;90.50
20349;DHT22;10332;50.208;18.988;2023-03-11T00:03:24;9.60;90.30
20349;DHT22;10332;50.208;18.988;2023-03-11T00:05:54;9.60;90.20
20349;DHT22;10332;50.208;18.988;2023-03-11T00:08:23;9.60;89.20
20349;DHT22;10332;50.208;18.988;2023-03-11T00:10:54;9.70;88.50
20349;DHT22;10332;50.208;18.988;2023-03-11T00:13:22;9.70;87.50
20349;DHT22;10332;50.208;18.988;2023-03-11T00:15:53;9.70;87.00
20349;DHT22;10332;50.208;18.988;2023-03-11T00:18:23;9.70;85.50
20349;DHT22;10332;50.208;18.988;2023-03-11T00:20:54;9.70;84.70
20349;DHT22;10332;50.208;18.988;2023-03-11T00:23:23;9.70;84.60
20349;DHT22;10332;50.208;18.988;2023-03-11T00:25:52;9.70;83.30
20349;DHT22;10332;50.208;18.988;2023-03-11T00:28:19;9.70;83.00
20349;DHT22;10332;50.208;18.988;2023-03-11T00:30:51;9.60;83.20
20349;DHT22;10332;50.208;18.988;2023-03-11T00:33:18;9.60;82.80
20349;DHT22;10332;50.208;18.988;2023-03-11T00:35:46;9.60;81.30
20349;DHT22;10332;50.208;18.988;2023-03-11T00:38:15;9.60;80.00
20349;DHT22;10332;50.208;18.988;2023-03-11T00:40:44;9.60;79.60
20349;DHT22;10332;50.208;18.988;2023-03-11T00:43:14;9.60;79.50
20349;DHT22;10332;50.208;18.988;2023-03-11T00:45:42;9.60;79.00
20349;DHT22;10332;50.208;18.988;2023-03-11T00:48:11;9.60;79.00
20349;DHT22;10332;50.208;18.988;2023-03-11T00:50:40;9.50;79.40
20349;DHT22;10332;50.208;18.988;2023-03-11T00:53:10;9.50;80.60
20349;DHT22;10332;50.208;18.988;2023-03-11T00:55:38;9.60;80.20
20349;DHT22;10332;50.208;18.988;2023-03-11T00:58:06;9.60;79.80
20349;DHT22;10332;50.208;18.988;2023-03-11T01:00:34;9.50;80.30
20349;DHT22;10332;50.208;18.988;2023-03-11T01:03:02;9.40;77.10
20349;DHT22;10332;50.208;18.988;2023-03-11T01:05:31;9.40;74.70
20349;DHT22;10332;50.208;18.988;2023-03-11T01:08:00;9.40;71.90
20349;DHT22;10332;50.208;18.988;2023-03-11T01:10:29;9.40;71.60
20349;DHT22;10332;50.208;18.988;2023-03-11T01:12:58;9.40;71.10
20349;DHT22;10332;50.208;18.988;2023-03-11T01:15:29;9.40;70.70
20349;DHT22;10332;50.208;18.988;2023-03-11T01:18:00;9.30;67.10
20349;DHT22;10332;50.208;18.988;2023-03-11T01:20:27;9.30;67.20
20349;DHT22;10332;50.208;18.988;2023-03-11T01:22:55;9.30;65.40
20349;DHT22;10332;50.208;18.988;2023-03-11T01:25:23;9.30;64.40
20349;DHT22;10332;50.208;18.988;2023-03-11T01:27:51;9.30;65.40
20349;DHT22;10332;50.208;18.988;2023-03-11T01:30:21;9.20;66.20
20349;DHT22;10332;50.208;18.988;2023-03-11T01:32:51;9.20;66.50
20349;DHT22;10332;50.208;18.988;2023-03-11T01:35:21;9.30;65.20
20349;DHT22;10332;50.208;18.988;2023-03-11T01:37:49;9.30;64.40
20349;DHT22;10332;50.208;18.988;2023-03-11T01:40:32;9.30;62.40
20349;DHT22;10332;50.208;18.988;2023-03-11T01:49:01;9.20;60.70
20349;DHT22;10332;50.208;18.988;2023-03-11T01:51:37;9.20;61.30
20349;DHT22;10332;50.208;18.988;2023-03-11T01:54:15;9.10;61.80
20349;DHT22;10332;50.208;18.988;2023-03-11T01:56:48;9.10;63.90
20349;DHT22;10332;50.208;18.988;2023-03-11T01:59:20;9.10;66.80
20349;DHT22;10332;50.208;18.988;2023-03-11T02:02:27;9.10;69.90
20349;DHT22;10332;50.208;18.988;2023-03-11T02:05:01;9.10;73.10
20349;DHT22;10332;50.208;18.988;2023-03-11T02:07:30;9.00;75.50
20349;DHT22;10332;50.208;18.988;2023-03-11T02:09:58;9.00;75.30
20349;DHT22;10332;50.208;18.988;2023-03-11T02:12:28;9.00;74.90
20349;DHT22;10332;50.208;18.988;2023-03-11T02:15:00;9.00;75.60
20349;DHT22;10332;50.208;18.988;2023-03-11T02:17:31;8.90;74.40
20349;DHT22;10332;50.208;18.988;2023-03-11T02:20:13;8.90;74.00
20349;DHT22;10332;50.208;18.988;2023-03-11T02:22:48;8.80;73.90
20349;DHT22;10332;50.208;18.988;2023-03-11T02:27:51;8.70;73.60
20349;DHT22;10332;50.208;18.988;2023-03-11T02:30:21;8.70;73.20
20349;DHT22;10332;50.208;18.988;2023-03-11T02:32:50;8.60;73.40
20349;DHT22;10332;50.208;18.988;2023-03-11T02:35:18;8.60;72.40
20349;DHT22;10332;50.208;18.988;2023-03-11T02:37:48;8.60;72.20
20349;DHT22;10332;50.208;18.988;2023-03-11T02:42:56;8.60;70.70
20349;DHT22;10332;50.208;18.988;2023-03-11T02:45:29;8.50;71.60
20349;DHT22;10332;50.208;18.988;2023-03-11T02:47:58;8.50;70.20
20349;DHT22;10332;50.208;18.988;2023-03-11T02:50:28;8.40;70.40
20349;DHT22;10332;50.208;18.988;2023-03-11T02:52:57;8.40;69.20
20349;DHT22;10332;50.208;18.988;2023-03-11T02:55:24;8.40;67.80
20349;DHT22;10332;50.208;18.988;2023-03-11T02:57:52;8.40;66.70
20349;DHT22;10332;50.208;18.988;2023-03-11T03:00:19;8.30;67.20
20349;DHT22;10332;50.208;18.988;2023-03-11T03:02:47;8.30;64.20
20349;DHT22;10332;50.208;18.988;2023-03-11T03:05:19;8.30;63.20
20349;DHT22;10332;50.208;18.988;2023-03-11T03:07:48;8.40;62.60
20349;DHT22;10332;50.208;18.988;2023-03-11T03:10:18;8.30;61.70
20349;DHT22;10332;50.208;18.988;2023-03-11T03:12:47;8.30;61.10
20349;DHT22;10332;50.208;18.988;2023-03-11T03:15:15;8.20;62.40
20349;DHT22;10332;50.208;18.988;2023-03-11T03:17:42;8.30;61.40
20349;DHT22;10332;50.208;18.988;2023-03-11T03:20:11;8.20;58.20
20349;DHT22;10332;50.208;18.988;2023-03-11T03:22:41;8.20;60.10
20349;DHT22;10332;50.208;18.988;2023-03-11T03:25:09;8.00;65.30
20349;DHT22;10332;50.208;18.988;2023-03-11T03:27:37;7.80;66.90
20349;DHT22;10332;50.208;18.988;2023-03-11T03:30:06;7.70;70.00
20349;DHT22;10332;50.208;18.988;2023-03-11T03:32:34;7.60;71.80
20349;DHT22;10332;50.208;18.988;2023-03-11T03:35:03;7.50;76.00
20349;DHT22;10332;50.208;18.988;2023-03-11T03:37:33;7.40;75.10
20349;DHT22;10332;50.208;18.988;2023-03-11T03:40:04;7.40;75.30
20349;DHT22;10332;50.208;18.988;2023-03-11T03:42:36;7.40;77.60
20349;DHT22;10332;50.208;18.988;2023-03-11T03:45:06;7.40;79.50
20349;DHT22;10332;50.208;18.988;2023-03-11T03:47:35;7.40;77.70
20349;DHT22;10332;50.208;18.988;2023-03-11T03:50:04;7.30;78.70
20349;DHT22;10332;50.208;18.988;2023-03-11T03:52:35;7.20;80.20
20349;DHT22;10332;50.208;18.988;2023-03-11T03:55:04;7.10;83.40
20349;DHT22;10332;50.208;18.988;2023-03-11T03:57:32;7.10;90.20
20349;DHT22;10332;50.208;18.988;2023-03-11T03:59:59;7.00;93.80
20349;DHT22;10332;50.208;18.988;2023-03-11T04:02:27;6.90;97.80
20349;DHT22;10332;50.208;18.988;2023-03-11T04:04:55;6.60;99.90
20349;DHT22;10332;50.208;18.988;2023-03-11T04:07:23;6.30;99.90
20349;DHT22;10332;50.208;18.988;2023-03-11T04:09:50;6.10;99.90
20349;DHT22;10332;50.208;18.988;2023-03-11T04:12:18;6.00;99.90
20349;DHT22;10332;50.208;18.988;2023-03-11T04:14:45;5.90;99.90
20349;DHT22;10332;50.208;18.988;2023-03-11T04:17:13;5.80;99.90
20349;DHT22;10332;50.208;18.988;2023-03-11T04:19:40;5.80;99.90
20349;DHT22;10332;50.208;18.988;2023-03-11T04:22:08;5.80;99.90
20349;DHT22;10332;50.208;18.988;2023-03-11T04:24:35;5.70;99.90
20349;DHT22;10332;50.208;18.988;2023-03-11T04:27:03;5.70;99.90
20349;DHT22;10332;50.208;18.988;2023-03-11T04:29:30;5.70;99.90
20349;DHT22;10332;50.208;18.988;2023-03-11T04:31:58;5.70;99.90
20349;DHT22;10332;50.208;18.988;2023-03-11T04:34:25;5.70;99.90
20349;DHT22;10332;50.208;18.988;2023-03-11T04:36:53;5.60;99.90
20349;DHT22;10332;50.208;18.988;2023-03-11T04:39:21;5.60;99.90
20349;DHT22;10332;50.208;18.988;2023-03-11T04:41:49;5.60;99.90
20349;DHT22;10332;50.208;18.988;2023-03-11T04:44:16;5.60;99.90
20349;DHT22;10332;50.208;18.988;2023-03-11T04:46:43;5.50;99.90
20349;DHT22;10332;50.208;18.988;2023-03-11T04:49:11;5.40;99.90
20349;DHT22;10332;50.208;18.988;2023-03-11T04:51:38;5.40;99.90
20349;DHT22;10332;50.208;18.988;2023-03-11T04:54:06;5.40;99.90
20349;DHT22;10332;50.208;18.988;2023-03-11T04:56:33;5.30;99.90
20349;DHT22;10332;50.208;18.988;2023-03-11T04:59:01;5.20;99.90
20349;DHT22;10332;50.208;18.988;2023-03-11T05:01:28;5.10;99.90
20349;DHT22;10332;50.208;18.988;2023-03-11T05:03:56;4.90;99.90
20349;DHT22;10332;50.208;18.988;2023-03-11T05:06:23;4.80;99.90
20349;DHT22;10332;50.208;18.988;2023-03-11T05:08:51;4.80;99.90
20349;DHT22;10332;50.208;18.988;2023-03-11T05:11:18;4.70;99.90
20349;DHT22;10332;50.208;18.988;2023-03-11T05:13:46;4.80;99.90
20349;DHT22;10332;50.208;18.988;2023-03-11T05:16:13;4.80;99.90
20349;DHT22;10332;50.208;18.988;2023-03-11T05:18:41;4.70;99.90
20349;DHT22;10332;50.208;18.988;2023-03-11T05:21:08;4.80;99.90
20349;DHT22;10332;50.208;18.988;2023-03-11T05:23:36;4.70;99.90
20349;DHT22;10332;50.208;18.988;2023-03-11T05:26:04;4.70;99.90
20349;DHT22;10332;50.208;18.988;2023-03-11T05:28:32;4.60;99.90
20349;DHT22;10332;50.208;18.988;2023-03-11T05:30:59;4.70;99.90
20349;DHT22;10332;50.208;18.988;2023-03-11T05:33:26;4.60;99.90
20349;DHT22;10332;50.208;18.988;2023-03-11T05:36:08;4.60;99.90
20349;DHT22;10332;50.208;18.988;2023-03-11T05:38:36;4.50;99.90
20349;DHT22;10332;50.208;18.988;2023-03-11T05:41:04;4.40;99.90
20349;DHT22;10332;50.208;18.988;2023-03-11T05:43:32;4.40;99.90
20349;DHT22;10332;50.208;18.988;2023-03-11T05:45:59;4.30;99.90
20349;DHT22;10332;50.208;18.988;2023-03-11T05:48:27;4.20;99.90
20349;DHT22;10332;50.208;18.988;2023-03-11T05:50:54;4.20;99.90
20349;DHT22;10332;50.208;18.988;2023-03-11T05:53:22;4.10;99.90
20349;DHT22;10332;50.208;18.988;2023-03-11T05:55:59;4.10;99.90
20349;DHT22;10332;50.208;18.988;2023-03-11T05:58:28;4.00;99.90
20349;DHT22;10332;50.208;18.988;2023-03-11T06:00:57;4.00;99.90
20349;DHT22;10332;50.208;18.988;2023-03-11T06:03:27;4.00;99.90
20349;DHT22;10332;50.208;18.988;2023-03-11T06:05:55;3.90;99.90
20349;DHT22;10332;50.208;18.988;2023-03-11T06:08:22;3.90;99.90
20349;DHT22;10332;50.208;18.988;2023-03-11T06:10:50;3.90;99.90
20349;DHT22;10332;50.208;18.988;2023-03-11T06:13:17;3.90;99.90
20349;DHT22;10332;50.208;18.988;2023-03-11T06:15:45;3.90;99.90
20349;DHT22;10332;50.208;18.988;2023-03-11T06:18:12;3.80;99.90
20349;DHT22;10332;50.208;18.988;2023-03-11T06:20:40;3.70;99.90
20349;DHT22;10332;50.208;18.988;2023-03-11T06:23:07;3.60;99.90
20349;DHT22;10332;50.208;18.988;2023-03-11T06:25:35;3.50;99.90
20349;DHT22;10332;50.208;18.988;2023-03-11T06:28:02;3.40;99.90
20349;DHT22;10332;50.208;18.988;2023-03-11T06:30:30;3.30;99.90
20349;DHT22;10332;50.208;18.988;2023-03-11T06:32:57;3.20;99.90
20349;DHT22;10332;50.208;18.988;2023-03-11T06:35:25;3.20;99.90
20349;DHT22;10332;50.208;18.988;2023-03-11T06:37:53;3.10;99.90
20349;DHT22;10332;50.208;18.988;2023-03-11T06:40:20;3.10;99.90
20349;DHT22;10332;50.208;18.988;2023-03-11T06:42:47;3.10;99.90
20349;DHT22;10332;50.208;18.988;2023-03-11T06:45:15;3.10;99.90
20349;DHT22;10332;50.208;18.988;2023-03-11T06:47:46;3.10;99.90
20349;DHT22;10332;50.208;18.988;2023-03-11T06:50:14;3.10;99.90
20349;DHT22;10332;50.208;18.988;2023-03-11T06:52:41;3.10;99.90
20349;DHT22;10332;50.208;18.988;2023-03-11T06:55:09;3.10;99.90
20349;DHT22;10332;50.208;18.988;2023-03-11T06:57:36;3.10;99.90
20349;DHT22;10332;50.208;18.988;2023-03-11T07:00:04;3.10;99.90
20349;DHT22;10332;50.208;18.988;2023-03-11T07:02:33;3.10;99.90
20349;DHT22;10332;50.208;18.988;2023-03-11T07:05:01;3.20;99.90
20349;DHT22;10332;50.208;18.988;2023-03-11T07:07:28;3.20;99.90
20349;DHT22;10332;50.208;18.988;2023-03-11T07:09:56;3.20;99.90
20349;DHT22;10332;50.208;18.988;2023-03-11T07:12:23;3.20;99.90
20349;DHT22;10332;50.208;18.988;2023-03-11T07:14:55;3.30;99.90
20349;DHT22;10332;50.208;18.988;2023-03-11T07:17:23;3.20;99.90
20349;DHT22;10332;50.208;18.988;2023-03-11T07:19:52;3.20;99.90
20349;DHT22;10332;50.208;18.988;2023-03-11T07:22:20;3.20;99.90
20349;DHT22;10332;50.208;18.988;2023-03-11T07:24:48;3.30;99.90
20349;DHT22;10332;50.208;18.988;2023-03-11T07:27:16;3.30;99.90
20349;DHT22;10332;50.208;18.988;2023-03-11T07:29:43;3.30;99.90
20349;DHT22;10332;50.208;18.988;2023-03-11T07:32:11;3.40;99.90
20349;DHT22;10332;50.208;18.988;2023-03-11T07:34:38;3.40;99.90
20349;DHT22;10332;50.208;18.988;2023-03-11T07:37:06;3.40;99.90
20349;DHT22;10332;50.208;18.988;2023-03-11T07:39:34;3.40;99.90
20349;DHT22;10332;50.208;18.988;2023-03-11T07:42:03;3.50;99.90
20349;DHT22;10332;50.208;18.988;2023-03-11T07:44:31;3.40;99.90
20349;DHT22;10332;50.208;18.988;2023-03-11T07:47:02;3.40;99.90
20349;DHT22;10332;50.208;18.988;2023-03-11T07:49:30;3.40;99.90
20349;DHT22;10332;50.208;18.988;2023-03-11T07:51:58;3.40;99.90
20349;DHT22;10332;50.208;18.988;2023-03-11T07:54:26;3.40;99.90
20349;DHT22;10332;50.208;18.988;2023-03-11T07:56:53;3.40;99.90
20349;DHT22;10332;50.208;18.988;2023-03-11T07:59:20;3.30;99.90
20349;DHT22;10332;50.208;18.988;2023-03-11T08:01:48;3.20;99.90
20349;DHT22;10332;50.208;18.988;2023-03-11T08:04:16;3.30;99.90
20349;DHT22;10332;50.208;18.988;2023-03-11T08:06:46;3.20;99.90
20349;DHT22;10332;50.208;18.988;2023-03-11T08:09:14;3.20;99.90
20349;DHT22;10332;50.208;18.988;2023-03-11T08:11:41;3.20;99.90
20349;DHT22;10332;50.208;18.988;2023-03-11T08:14:09;3.20;99.90
20349;DHT22;10332;50.208;18.988;2023-03-11T08:16:38;3.30;99.90
20349;DHT22;10332;50.208;18.988;2023-03-11T08:19:10;3.30;99.90
20349;DHT22;10332;50.208;18.988;2023-03-11T08:21:38;3.30;99.90
20349;DHT22;10332;50.208;18.988;2023-03-11T08:24:08;3.30;99.90
20349;DHT22;10332;50.208;18.988;2023-03-11T08:26:38;3.30;99.90
20349;DHT22;10332;50.208;18.988;2023-03-11T08:29:06;3.40;99.90
20349;DHT22;10332;50.208;18.988;2023-03-11T08:31:34;3.30;99.90
20349;DHT22;10332;50.208;18.988;2023-03-11T08:34:08;3.30;99.90
20349;DHT22;10332;50.208;18.988;2023-03-11T08:36:36;3.30;99.90
20349;DHT22;10332;50.208;18.988;2023-03-11T08:39:04;3.30;99.90
20349;DHT22;10332;50.208;18.988;2023-03-11T08:41:32;3.30;99.90
20349;DHT22;10332;50.208;18.988;2023-03-11T08:44:00;3.20;99.90
20349;DHT22;10332;50.208;18.988;2023-03-11T08:46:33;3.10;99.90
20349;DHT22;10332;50.208;18.988;2023-03-11T08:49:03;3.10;99.90
20349;DHT22;10332;50.208;18.988;2023-03-11T08:51:33;3.00;99.90
20349;DHT22;10332;50.208;18.988;2023-03-11T08:54:02;3.00;99.90
20349;DHT22;10332;50.208;18.988;2023-03-11T08:56:30;3.10;99.90
20349;DHT22;10332;50.208;18.988;2023-03-11T08:58:58;3.10;99.90
20349;DHT22;10332;50.208;18.988;2023-03-11T09:01:26;3.10;99.90
20349;DHT22;10332;50.208;18.988;2023-03-11T09:03:55;3.00;99.90
20349;DHT22;10332;50.208;18.988;2023-03-11T09:06:23;3.10;99.90
20349;DHT22;10332;50.208;18.988;2023-03-11T09:08:51;3.00;99.90
20349;DHT22;10332;50.208;18.988;2023-03-11T09:11:19;2.80;99.90
20349;DHT22;10332;50.208;18.988;2023-03-11T09:13:49;2.60;99.90
20349;DHT22;10332;50.208;18.988;2023-03-11T09:16:19;2.60;99.90
20349;DHT22;10332;50.208;18.988;2023-03-11T09:18:48;2.60;99.90
20349;DHT22;10332;50.208;18.988;2023-03-11T09:21:16;2.50;99.90
20349;DHT22;10332;50.208;18.988;2023-03-11T09:23:44;2.50;99.90
20349;DHT22;10332;50.208;18.988;2023-03-11T09:26:12;2.50;99.90
20349;DHT22;10332;50.208;18.988;2023-03-11T09:28:41;2.40;99.90
20349;DHT22;10332;50.208;18.988;2023-03-11T09:31:09;2.50;99.90
20349;DHT22;10332;50.208;18.988;2023-03-11T09:33:39;2.50;99.90
20349;DHT22;10332;50.208;18.988;2023-03-11T09:36:15;2.40;99.90
20349;DHT22;10332;50.208;18.988;2023-03-11T09:38:45;2.40;99.90
20349;DHT22;10332;50.208;18.988;2023-03-11T09:46:56;2.40;99.90
20349;DHT22;10332;50.208;18.988;2023-03-11T09:49:46;2.40;99.90
20349;DHT22;10332;50.208;18.988;2023-03-11T09:52:18;2.40;99.90
20349;DHT22;10332;50.208;18.988;2023-03-11T09:54:57;2.40;99.90
20349;DHT22;10332;50.208;18.988;2023-03-11T09:57:32;2.30;99.90
20349;DHT22;10332;50.208;18.988;2023-03-11T10:00:04;2.40;99.90
20349;DHT22;10332;50.208;18.988;2023-03-11T10:02:35;2.40;99.90
20349;DHT22;10332;50.208;18.988;2023-03-11T10:05:20;2.40;99.90
20349;DHT22;10332;50.208;18.988;2023-03-11T10:08:23;2.50;99.90
20349;DHT22;10332;50.208;18.988;2023-03-11T10:11:03;2.50;99.90
20349;DHT22;10332;50.208;18.988;2023-03-11T10:13:56;2.50;99.90
20349;DHT22;10332;50.208;18.988;2023-03-11T10:17:39;2.50;99.90
20349;DHT22;10332;50.208;18.988;2023-03-11T10:25:20;2.60;99.90
20349;DHT22;10332;50.208;18.988;2023-03-11T10:27:56;2.50;99.90
20349;DHT22;10332;50.208;18.988;2023-03-11T10:30:35;2.50;99.90
20349;DHT22;10332;50.208;18.988;2023-03-11T10:35:57;2.50;99.90
20349;DHT22;10332;50.208;18.988;2023-03-11T10:38:33;2.50;99.90
20349;DHT22;10332;50.208;18.988;2023-03-11T10:41:16;2.50;99.90
20349;DHT22;10332;50.208;18.988;2023-03-11T10:43:59;2.60;99.90
20349;DHT22;10332;50.208;18.988;2023-03-11T10:46:30;2.50;99.90
20349;DHT22;10332;50.208;18.988;2023-03-11T10:48:58;2.50;99.90
20349;DHT22;10332;50.208;18.988;2023-03-11T10:51:35;2.50;99.90
20349;DHT22;10332;50.208;18.988;2023-03-11T10:54:03;2.50;99.90
20349;DHT22;10332;50.208;18.988;2023-03-11T10:56:36;2.40;99.90
20349;DHT22;10332;50.208;18.988;2023-03-11T10:59:33;2.30;99.90
20349;DHT22;10332;50.208;18.988;2023-03-11T11:07:46;2.50;99.90
20349;DHT22;10332;50.208;18.988;2023-03-11T11:10:24;2.50;99.90
20349;DHT22;10332;50.208;18.988;2023-03-11T11:12:56;2.60;99.90
20349;DHT22;10332;50.208;18.988;2023-03-11T11:15:37;2.60;99.90
20349;DHT22;10332;50.208;18.988;2023-03-11T11:18:26;2.70;99.90
20349;DHT22;10332;50.208;18.988;2023-03-11T11:21:07;2.60;99.90
20349;DHT22;10332;50.208;18.988;2023-03-11T11:23:46;2.60;99.90
20349;DHT22;10332;50.208;18.988;2023-03-11T11:26:24;2.70;99.90
20349;DHT22;10332;50.208;18.988;2023-03-11T11:29:18;2.90;99.90
20349;DHT22;10332;50.208;18.988;2023-03-11T11:31:46;3.00;99.90
20349;DHT22;10332;50.208;18.988;2023-03-11T11:34:28;3.10;99.90
20349;DHT22;10332;50.208;18.988;2023-03-11T11:37:03;3.10;99.90
20349;DHT22;10332;50.208;18.988;2023-03-11T11:39:50;2.90;99.90
20349;DHT22;10332;50.208;18.988;2023-03-11T11:42:25;2.90;99.90
20349;DHT22;10332;50.208;18.988;2023-03-11T11:45:01;2.90;99.90
20349;DHT22;10332;50.208;18.988;2023-03-11T11:47:40;3.00;99.90
20349;DHT22;10332;50.208;18.988;2023-03-11T11:50:27;3.30;99.90
20349;DHT22;10332;50.208;18.988;2023-03-11T11:55:45;3.40;99.90
20349;DHT22;10332;50.208;18.988;2023-03-11T11:58:15;3.20;99.90
20349;DHT22;10332;50.208;18.988;2023-03-11T12:06:57;2.60;99.90
20349;DHT22;10332;50.208;18.988;2023-03-11T12:18:36;2.30;99.90
20349;DHT22;10332;50.208;18.988;2023-03-11T12:28:26;2.50;99.90
20349;DHT22;10332;50.208;18.988;2023-03-11T12:30:58;2.50;99.90
20349;DHT22;10332;50.208;18.988;2023-03-11T12:33:45;2.50;99.90
20349;DHT22;10332;50.208;18.988;2023-03-11T12:36:33;2.50;99.90
20349;DHT22;10332;50.208;18.988;2023-03-11T12:39:04;2.50;99.90
20349;DHT22;10332;50.208;18.988;2023-03-11T12:41:39;2.50;99.90
20349;DHT22;10332;50.208;18.988;2023-03-11T12:44:21;2.50;99.90
20349;DHT22;10332;50.208;18.988;2023-03-11T12:47:02;2.40;99.90
20349;DHT22;10332;50.208;18.988;2023-03-11T12:49:49;2.30;99.90
20349;DHT22;10332;50.208;18.988;2023-03-11T12:52:28;2.30;99.90
20349;DHT22;10332;50.208;18.988;2023-03-11T12:57:34;2.30;99.90
20349;DHT22;10332;50.208;18.988;2023-03-11T13:00:26;2.30;99.90
20349;DHT22;10332;50.208;18.988;2023-03-11T13:06:21;2.20;99.90
20349;DHT22;10332;50.208;18.988;2023-03-11T13:08:54;2.20;99.90
20349;DHT22;10332;50.208;18.988;2023-03-11T13:17:26;2.10;99.90
20349;DHT22;10332;50.208;18.988;2023-03-11T13:19:57;2.00;99.90
20349;DHT22;10332;50.208;18.988;2023-03-11T13:22:43;2.00;99.90
20349;DHT22;10332;50.208;18.988;2023-03-11T13:31:22;1.90;99.90
20349;DHT22;10332;50.208;18.988;2023-03-11T13:40:28;2.00;99.90
20349;DHT22;10332;50.208;18.988;2023-03-11T13:43:02;1.90;99.90
20349;DHT22;10332;50.208;18.988;2023-03-11T13:45:37;1.90;99.90
20349;DHT22;10332;50.208;18.988;2023-03-11T13:48:13;1.90;99.90
20349;DHT22;10332;50.208;18.988;2023-03-11T13:50:53;1.90;99.90
20349;DHT22;10332;50.208;18.988;2023-03-11T13:53:32;1.90;99.90
20349;DHT22;10332;50.208;18.988;2023-03-11T13:56:22;1.80;99.90
20349;DHT22;10332;50.208;18.988;2023-03-11T13:58:53;1.70;99.90
20349;DHT22;10332;50.208;18.988;2023-03-11T14:01:52;1.70;99.90
20349;DHT22;10332;50.208;18.988;2023-03-11T14:04:26;1.70;99.90
20349;DHT22;10332;50.208;18.988;2023-03-11T14:06:57;1.70;99.90
20349;DHT22;10332;50.208;18.988;2023-03-11T14:09:27;1.70;99.90
20349;DHT22;10332;50.208;18.988;2023-03-11T14:12:03;1.70;99.90
20349;DHT22;10332;50.208;18.988;2023-03-11T14:17:19;1.70;99.90
20349;DHT22;10332;50.208;18.988;2023-03-11T14:20:15;1.70;99.90
20349;DHT22;10332;50.208;18.988;2023-03-11T14:22:46;1.80;99.90
20349;DHT22;10332;50.208;18.988;2023-03-11T14:25:24;1.80;99.90
20349;DHT22;10332;50.208;18.988;2023-03-11T14:27:56;1.80;99.90
20349;DHT22;10332;50.208;18.988;2023-03-11T14:30:30;1.80;99.90
20349;DHT22;10332;50.208;18.988;2023-03-11T14:33:11;1.80;99.90
20349;DHT22;10332;50.208;18.988;2023-03-11T14:35:56;1.90;99.90
20349;DHT22;10332;50.208;18.988;2023-03-11T14:38:28;1.90;99.90
20349;DHT22;10332;50.208;18.988;2023-03-11T14:41:03;1.80;99.90
20349;DHT22;10332;50.208;18.988;2023-03-11T14:43:36;1.90;99.90
20349;DHT22;10332;50.208;18.988;2023-03-11T14:46:07;1.90;99.90
20349;DHT22;10332;50.208;18.988;2023-03-11T14:48:43;1.90;99.90
20349;DHT22;10332;50.208;18.988;2023-03-11T14:51:26;2.00;99.90
20349;DHT22;10332;50.208;18.988;2023-03-11T14:54:19;2.10;99.90
20349;DHT22;10332;50.208;18.988;2023-03-11T14:57:06;2.10;99.90
20349;DHT22;10332;50.208;18.988;2023-03-11T14:59:47;2.10;99.90
20349;DHT22;10332;50.208;18.988;2023-03-11T15:06:11;2.20;99.90
20349;DHT22;10332;50.208;18.988;2023-03-11T15:08:28;2.20;99.90
20349;DHT22;10332;50.208;18.988;2023-03-11T15:13:33;2.30;99.90
20349;DHT22;10332;50.208;18.988;2023-03-11T15:16:06;2.30;99.90
20349;DHT22;10332;50.208;18.988;2023-03-11T15:18:47;2.40;99.90
20349;DHT22;10332;50.208;18.988;2023-03-11T15:21:17;2.40;99.90
20349;DHT22;10332;50.208;18.988;2023-03-11T15:23:54;2.40;99.90
20349;DHT22;10332;50.208;18.988;2023-03-11T15:26:34;2.30;99.90
20349;DHT22;10332;50.208;18.988;2023-03-11T15:29:14;2.30;99.90
20349;DHT22;10332;50.208;18.988;2023-03-11T15:31:44;2.30;99.90
20349;DHT22;10332;50.208;18.988;2023-03-11T15:44:41;2.00;99.90
20349;DHT22;10332;50.208;18.988;2023-03-11T15:47:20;1.90;99.90
20349;DHT22;10332;50.208;18.988;2023-03-11T15:49:48;1.90;99.90
20349;DHT22;10332;50.208;18.988;2023-03-11T15:52:19;1.80;99.90
20349;DHT22;10332;50.208;18.988;2023-03-11T15:54:47;1.90;99.90
20349;DHT22;10332;50.208;18.988;2023-03-11T15:57:26;1.90;99.90
20349;DHT22;10332;50.208;18.988;2023-03-11T15:59:57;2.00;99.90
20349;DHT22;10332;50.208;18.988;2023-03-11T16:02:28;2.10;99.90
20349;DHT22;10332;50.208;18.988;2023-03-11T16:04:58;2.00;99.90
20349;DHT22;10332;50.208;18.988;2023-03-11T16:07:26;2.00;99.90
20349;DHT22;10332;50.208;18.988;2023-03-11T16:10:07;2.00;99.90
20349;DHT22;10332;50.208;18.988;2023-03-11T16:12:36;1.90;99.90
20349;DHT22;10332;50.208;18.988;2023-03-11T16:15:04;1.90;99.90
20349;DHT22;10332;50.208;18.988;2023-03-11T16:17:35;1.90;99.90
20349;DHT22;10332;50.208;18.988;2023-03-11T16:20:17;1.90;99.90
20349;DHT22;10332;50.208;18.988;2023-03-11T16:22:47;1.80;99.90
20349;DHT22;10332;50.208;18.988;2023-03-11T16:25:25;1.90;99.90
20349;DHT22;10332;50.208;18.988;2023-03-11T16:27:57;1.90;99.90
20349;DHT22;10332;50.208;18.988;2023-03-11T16:30:26;1.90;99.90
20349;DHT22;10332;50.208;18.988;2023-03-11T16:32:57;1.90;99.90
20349;DHT22;10332;50.208;18.988;2023-03-11T16:35:24;1.80;99.90
20349;DHT22;10332;50.208;18.988;2023-03-11T16:37:53;1.80;99.90
20349;DHT22;10332;50.208;18.988;2023-03-11T16:40:23;1.80;99.90
20349;DHT22;10332;50.208;18.988;2023-03-11T16:43:19;1.70;99.80
20349;DHT22;10332;50.208;18.988;2023-03-11T16:45:46;1.70;98.40
20349;DHT22;10332;50.208;18.988;2023-03-11T16:48:14;1.70;98.90
20349;DHT22;10332;50.208;18.988;2023-03-11T16:50:41;1.60;99.70
20349;DHT22;10332;50.208;18.988;2023-03-11T16:53:09;1.60;98.80
20349;DHT22;10332;50.208;18.988;2023-03-11T16:55:36;1.60;99.50
20349;DHT22;10332;50.208;18.988;2023-03-11T16:58:04;1.60;98.60
20349;DHT22;10332;50.208;18.988;2023-03-11T17:00:38;1.70;98.30
20349;DHT22;10332;50.208;18.988;2023-03-11T17:03:11;1.60;99.20
20349;DHT22;10332;50.208;18.988;2023-03-11T17:05:40;1.60;98.30
20349;DHT22;10332;50.208;18.988;2023-03-11T17:08:08;1.60;97.80
20349;DHT22;10332;50.208;18.988;2023-03-11T17:10:39;1.60;99.10
20349;DHT22;10332;50.208;18.988;2023-03-11T17:13:11;1.60;98.50
20349;DHT22;10332;50.208;18.988;2023-03-11T17:15:39;1.60;97.90
20349;DHT22;10332;50.208;18.988;2023-03-11T17:18:11;1.50;97.70
20349;DHT22;10332;50.208;18.988;2023-03-11T17:20:39;1.50;98.30
20349;DHT22;10332;50.208;18.988;2023-03-11T17:23:09;1.50;98.60
20349;DHT22;10332;50.208;18.988;2023-03-11T17:25:40;1.50;97.20
20349;DHT22;10332;50.208;18.988;2023-03-11T17:28:08;1.50;98.00
20349;DHT22;10332;50.208;18.988;2023-03-11T17:30:43;1.50;97.20
20349;DHT22;10332;50.208;18.988;2023-03-11T17:33:11;1.40;96.70
20349;DHT22;10332;50.208;18.988;2023-03-11T17:35:41;1.40;98.00
20349;DHT22;10332;50.208;18.988;2023-03-11T17:38:09;1.40;98.50